Time;durP1;ratioP1;P1;durP2;ratioP2;P2;SDS_P1;SDS_P2;PMS_P1;PMS_P2;Temp;Humidity;BMP_temperature;BMP_pressure;BME280_temperature;BME280_humidity;BME280_pressure;Samples;Min_cycle;Max_cycle;Signal;HPM_P1;HPM_P2
2023/01/14 00:01:56;;;;;;;3.80;2.10;;;8.60;99.90;;;;;;5031782;28;20464;-73
2023/01/14 00:04:24;;;;;;;5.97;2.90;;;8.70;99.90;;;;;;5032744;28;20514;-73
2023/01/14 00:06:51;;;;;;;12.60;2.03;;;8.70;99.90;;;;;;5034296;28;20533;-72
2023/01/14 00:09:18;;;;;;;9.73;3.90;;;8.60;99.90;;;;;;5032549;28;20484;-72
2023/01/14 00:11:49;;;;;;;2.13;1.10;;;8.60;99.90;;;;;;5032496;28;20453;-73
2023/01/14 00:14:18;;;;;;;6.30;2.47;;;8.60;99.90;;;;;;5032701;28;20430;-73
2023/01/14 00:16:49;;;;;;;10.87;3.07;;;8.70;99.90;;;;;;4997542;28;20515;-73
2023/01/14 00:19:16;;;;;;;9.43;3.20;;;8.70;99.90;;;;;;5032674;28;20807;-73
2023/01/14 00:21:45;;;;;;;6.60;1.53;;;8.70;99.90;;;;;;5032856;28;20420;-73
2023/01/14 00:24:16;;;;;;;6.80;4.13;;;8.70;99.90;;;;;;5034150;28;20485;-73
2023/01/14 00:26:44;;;;;;;7.80;2.00;;;8.70;99.90;;;;;;5036761;28;20407;-73
2023/01/14 00:29:16;;;;;;;3.97;3.60;;;8.70;99.90;;;;;;5036113;28;20535;-74
2023/01/14 00:31:44;;;;;;;7.00;2.33;;;8.70;99.90;;;;;;5036118;28;20445;-73
2023/01/14 00:34:12;;;;;;;5.37;1.20;;;8.70;99.90;;;;;;5035961;28;20455;-73
2023/01/14 00:36:43;;;;;;;6.63;3.03;;;8.60;99.90;;;;;;5035584;28;20428;-74
2023/01/14 00:39:10;;;;;;;2.60;1.17;;;8.60;99.90;;;;;;5035608;28;20483;-73
2023/01/14 00:41:38;;;;;;;15.43;4.53;;;8.60;99.90;;;;;;5035565;28;20798;-73
2023/01/14 00:44:05;;;;;;;1.23;0.93;;;8.60;99.90;;;;;;5036421;28;20529;-73
2023/01/14 00:46:36;;;;;;;3.40;2.67;;;8.60;99.90;;;;;;5038649;28;20446;-73
2023/01/14 00:49:05;;;;;;;3.87;2.67;;;8.50;99.90;;;;;;5035599;28;20547;-73
2023/01/14 00:51:33;;;;;;;6.47;2.17;;;8.40;99.90;;;;;;5036241;28;20428;-73
2023/01/14 00:54:01;;;;;;;3.03;1.73;;;8.40;99.90;;;;;;5041161;28;20475;-72
2023/01/14 00:56:29;;;;;;;10.33;2.40;;;8.40;99.90;;;;;;5035381;28;20468;-73
2023/01/14 00:58:56;;;;;;;3.80;2.40;;;8.40;99.90;;;;;;5035598;28;20471;-72
2023/01/14 01:01:24;;;;;;;5.17;2.30;;;8.50;99.90;;;;;;5034203;28;21003;-74
2023/01/14 01:03:54;;;;;;;8.00;2.37;;;8.40;99.90;;;;;;5034749;28;20474;-73
2023/01/14 01:06:23;;;;;;;6.33;2.50;;;8.50;99.90;;;;;;5034943;28;20503;-73
2023/01/14 01:09:00;;;;;;;23.27;3.10;;;8.50;99.90;;;;;;5035412;28;20469;-73
2023/01/14 01:11:27;;;;;;;5.47;2.10;;;8.50;99.90;;;;;;5034694;28;20421;-73
2023/01/14 01:13:55;;;;;;;4.87;1.80;;;8.40;99.90;;;;;;5035094;28;20505;-72
2023/01/14 01:16:24;;;;;;;5.93;1.67;;;8.40;99.90;;;;;;5035431;28;20482;-73
2023/01/14 01:18:55;;;;;;;5.20;2.13;;;8.40;99.90;;;;;;5034619;28;20527;-72
2023/01/14 01:21:24;;;;;;;6.60;2.23;;;8.50;99.90;;;;;;5035098;28;20514;-73
2023/01/14 01:23:51;;;;;;;12.27;2.27;;;8.60;99.90;;;;;;5034936;28;20489;-73
2023/01/14 01:26:20;;;;;;;8.70;2.00;;;8.50;99.90;;;;;;5038965;28;20463;-73
2023/01/14 01:28:51;;;;;;;5.70;2.07;;;8.60;99.90;;;;;;5034611;28;20440;-72
2023/01/14 01:31:20;;;;;;;12.33;2.03;;;8.50;99.90;;;;;;5035084;28;20461;-73
2023/01/14 01:33:48;;;;;;;6.83;1.83;;;8.60;99.90;;;;;;5035391;28;20857;-73
2023/01/14 01:36:19;;;;;;;13.13;2.67;;;8.60;99.90;;;;;;5033552;28;20469;-73
2023/01/14 01:38:47;;;;;;;2.10;1.53;;;8.50;99.90;;;;;;5034612;28;20477;-73
2023/01/14 01:41:16;;;;;;;3.03;1.77;;;8.50;99.90;;;;;;5034223;28;20503;-73
2023/01/14 01:44:10;;;;;;;4.90;2.63;;;8.40;99.90;;;;;;5034293;28;20533;-72
2023/01/14 01:46:38;;;;;;;6.53;2.17;;;8.50;99.90;;;;;;5035047;28;20489;-72
2023/01/14 01:49:10;;;;;;;5.53;2.00;;;8.50;99.90;;;;;;5034376;28;20484;-73
2023/01/14 01:51:50;;;;;;;6.93;1.70;;;8.50;99.90;;;;;;5034169;28;20500;-73
2023/01/14 01:54:22;;;;;;;9.30;2.50;;;8.40;99.90;;;;;;5033772;28;20915;-73
2023/01/14 01:56:49;;;;;;;2.80;1.93;;;8.40;99.90;;;;;;5034277;28;20514;-73
2023/01/14 01:59:21;;;;;;;3.87;1.27;;;8.40;99.90;;;;;;5034612;28;20452;-73
2023/01/14 02:01:49;;;;;;;1.37;1.00;;;8.40;99.90;;;;;;5034495;28;20782;-71
2023/01/14 02:04:16;;;;;;;5.27;1.97;;;8.40;99.90;;;;;;5035010;28;20543;-72
2023/01/14 02:06:44;;;;;;;14.90;2.83;;;8.40;99.90;;;;;;5038444;28;20420;-72
2023/01/14 02:09:12;;;;;;;4.60;1.50;;;8.40;99.90;;;;;;5033734;28;20923;-72
2023/01/14 02:12:03;;;;;;;14.00;2.63;;;8.50;99.90;;;;;;5033746;28;20877;-72
2023/01/14 02:14:43;;;;;;;3.30;1.30;;;8.40;99.90;;;;;;5037332;28;20454;-72
2023/01/14 02:17:20;;;;;;;10.13;2.30;;;8.40;99.90;;;;;;5036823;28;20478;-72
2023/01/14 02:20:12;;;;;;;7.53;3.60;;;8.40;99.90;;;;;;5033165;28;20431;-72
2023/01/14 02:23:09;;;;;;;1.43;1.30;;;8.30;99.90;;;;;;5033534;28;20438;-71
2023/01/14 02:26:10;;;;;;;10.73;2.60;;;8.40;99.90;;;;;;5033178;28;20452;-72
2023/01/14 02:28:58;;;;;;;6.50;1.40;;;8.40;99.90;;;;;;5033040;28;20487;-72
2023/01/14 02:31:31;;;;;;;11.57;2.80;;;8.40;99.90;;;;;;5033189;28;20439;-72
2023/01/14 02:34:04;;;;;;;9.70;2.63;;;8.40;99.90;;;;;;5033213;28;20501;-73
2023/01/14 02:36:52;;;;;;;10.90;2.83;;;8.50;99.90;;;;;;5033576;28;20669;-73
2023/01/14 02:39:28;;;;;;;16.90;2.67;;;8.40;99.90;;;;;;5033092;28;20441;-72
2023/01/14 02:44:53;;;;;;;7.10;1.40;;;8.20;99.90;;;;;;5032711;28;20436;-72
2023/01/14 02:47:24;;;;;;;11.43;2.10;;;8.10;99.90;;;;;;5037393;28;20541;-72
2023/01/14 02:49:55;;;;;;;3.43;1.27;;;8.10;99.90;;;;;;5034201;28;20453;-72
2023/01/14 02:52:24;;;;;;;4.30;1.50;;;8.10;99.90;;;;;;5033168;28;20432;-72
2023/01/14 02:54:54;;;;;;;19.50;2.70;;;8.00;99.90;;;;;;5033062;28;20480;-72
2023/01/14 02:57:44;;;;;;;11.47;2.03;;;8.00;99.90;;;;;;5033038;28;20452;-72
2023/01/14 03:00:19;;;;;;;7.10;3.40;;;7.90;99.90;;;;;;5032728;28;20409;-72
2023/01/14 03:03:09;;;;;;;4.10;2.03;;;7.90;99.90;;;;;;5032378;28;20432;-71
2023/01/14 03:05:47;;;;;;;22.27;2.30;;;7.90;99.90;;;;;;5032737;28;20568;-71
2023/01/14 03:08:22;;;;;;;1.90;1.60;;;7.70;99.90;;;;;;5032845;28;20457;-71
2023/01/14 03:10:57;;;;;;;10.13;2.00;;;7.70;99.90;;;;;;5032827;28;20857;-71
2023/01/14 03:13:38;;;;;;;2.00;1.33;;;7.80;99.90;;;;;;5032575;28;20448;-71
2023/01/14 03:16:10;;;;;;;2.43;1.80;;;7.80;99.90;;;;;;5032237;28;20430;-71
2023/01/14 03:18:43;;;;;;;2.83;2.03;;;7.80;99.90;;;;;;5032278;28;20433;-71
2023/01/14 03:21:15;;;;;;;10.73;2.50;;;7.90;99.90;;;;;;5032168;28;20400;-72
2023/01/14 03:23:49;;;;;;;3.40;2.00;;;7.80;99.90;;;;;;5031977;28;20729;-71
2023/01/14 03:26:16;;;;;;;6.53;3.70;;;7.80;99.90;;;;;;5033889;28;20412;-71
2023/01/14 03:28:47;;;;;;;7.70;2.30;;;7.90;99.90;;;;;;5035523;28;20534;-71
2023/01/14 03:31:19;;;;;;;8.07;2.13;;;7.90;99.90;;;;;;5032171;28;20427;-71
2023/01/14 03:33:51;;;;;;;35.33;3.23;;;7.90;99.90;;;;;;5032032;28;20976;-70
2023/01/14 03:36:21;;;;;;;5.50;2.30;;;7.90;99.90;;;;;;5033910;28;20413;-73
2023/01/14 03:38:51;;;;;;;9.43;2.23;;;7.90;99.90;;;;;;5031968;28;20502;-73
2023/01/14 03:44:06;;;;;;;10.27;3.20;;;8.00;99.90;;;;;;5032223;28;20914;-72
2023/01/14 03:46:33;;;;;;;9.87;2.70;;;8.00;99.90;;;;;;5031688;28;20497;-72
2023/01/14 03:49:01;;;;;;;6.03;2.60;;;8.00;99.90;;;;;;5031823;28;20967;-71
2023/01/14 03:51:33;;;;;;;7.20;1.90;;;8.00;99.90;;;;;;5031747;28;20485;-71
2023/01/14 03:54:11;;;;;;;6.20;3.23;;;7.90;99.90;;;;;;5031668;28;20427;-71
2023/01/14 03:56:45;;;;;;;9.10;2.40;;;7.80;99.90;;;;;;5031754;28;20873;-71
2023/01/14 03:59:17;;;;;;;4.13;2.03;;;7.70;99.90;;;;;;5032072;28;20436;-71
2023/01/14 04:01:47;;;;;;;39.97;4.23;;;7.80;99.90;;;;;;5031338;28;20837;-71
2023/01/14 04:04:17;;;;;;;7.50;2.40;;;7.80;99.90;;;;;;5031660;28;20887;-71
2023/01/14 04:06:44;;;;;;;3.07;2.77;;;7.70;99.90;;;;;;5031713;28;20452;-71
2023/01/14 04:09:11;;;;;;;2.90;1.90;;;7.70;99.90;;;;;;5037114;28;20992;-72
2023/01/14 04:11:39;;;;;;;5.93;4.67;;;7.70;99.90;;;;;;5032480;28;20430;-72
2023/01/14 04:16:47;;;;;;;6.57;2.87;;;7.70;99.90;;;;;;5009509;28;20433;-72
2023/01/14 04:19:16;;;;;;;1.70;1.47;;;7.70;99.90;;;;;;5031886;28;20532;-72
2023/01/14 04:21:43;;;;;;;8.07;1.30;;;7.60;99.90;;;;;;5031856;28;20905;-72
2023/01/14 04:24:10;;;;;;;7.17;2.40;;;7.50;99.90;;;;;;5031322;28;20462;-72
2023/01/14 04:26:37;;;;;;;21.03;3.03;;;7.60;99.90;;;;;;5032081;28;20950;-73
2023/01/14 04:29:05;;;;;;;10.03;2.40;;;7.60;99.90;;;;;;5031743;28;20440;-72
2023/01/14 04:31:32;;;;;;;3.90;1.30;;;7.60;99.90;;;;;;5032164;28;20454;-73
2023/01/14 04:33:59;;;;;;;3.87;1.97;;;7.70;99.90;;;;;;5032122;28;20883;-72
2023/01/14 04:36:28;;;;;;;17.43;2.40;;;7.70;99.90;;;;;;5031845;28;20455;-72
2023/01/14 04:38:55;;;;;;;27.60;3.10;;;7.60;99.90;;;;;;5031511;28;21012;-71
2023/01/14 04:44:06;;;;;;;3.80;1.80;;;7.70;99.90;;;;;;5031643;28;20428;-72
2023/01/14 04:46:33;;;;;;;3.83;1.47;;;7.70;99.90;;;;;;5031497;28;20478;-71
2023/01/14 04:49:00;;;;;;;5.97;1.43;;;7.70;99.90;;;;;;5033621;28;20532;-72
2023/01/14 04:51:29;;;;;;;7.27;1.93;;;7.60;99.90;;;;;;5033445;28;20518;-72
2023/01/14 04:53:56;;;;;;;4.90;1.70;;;7.60;99.90;;;;;;5031409;28;20457;-72
2023/01/14 04:56:23;;;;;;;6.47;2.20;;;7.60;99.90;;;;;;5032414;28;20462;-73
2023/01/14 04:58:50;;;;;;;5.27;2.27;;;7.70;99.90;;;;;;5032936;28;20603;-73
2023/01/14 05:01:17;;;;;;;6.70;2.63;;;7.70;99.90;;;;;;5031652;28;20955;-73
2023/01/14 05:03:43;;;;;;;8.20;2.10;;;7.60;99.90;;;;;;5031622;28;20476;-73
2023/01/14 05:06:10;;;;;;;6.43;1.83;;;7.60;99.90;;;;;;5031201;28;20458;-73
2023/01/14 05:08:38;;;;;;;22.23;3.00;;;7.60;99.90;;;;;;5031256;28;20483;-73
2023/01/14 05:11:06;;;;;;;6.47;2.40;;;7.70;99.90;;;;;;5032772;28;21041;-73
2023/01/14 05:13:33;;;;;;;4.40;2.27;;;7.60;99.90;;;;;;5034964;28;20427;-73
2023/01/14 05:16:01;;;;;;;5.30;1.80;;;7.60;99.90;;;;;;5034575;28;20936;-71
2023/01/14 05:18:27;;;;;;;10.77;1.80;;;7.50;99.90;;;;;;5035280;28;20448;-72
2023/01/14 05:20:55;;;;;;;4.77;2.53;;;7.60;99.90;;;;;;5034903;28;20478;-73
2023/01/14 05:23:22;;;;;;;10.90;1.93;;;7.60;99.90;;;;;;5035069;28;20420;-72
2023/01/14 05:25:51;;;;;;;1.90;1.13;;;7.60;99.90;;;;;;5034255;28;20835;-73
2023/01/14 05:28:19;;;;;;;6.87;2.00;;;7.50;99.90;;;;;;5034295;28;20481;-72
2023/01/14 05:30:46;;;;;;;17.67;1.67;;;7.50;99.90;;;;;;5038736;28;20471;-72
2023/01/14 05:33:13;;;;;;;8.77;1.77;;;7.60;99.90;;;;;;5035219;28;20536;-72
2023/01/14 05:35:40;;;;;;;6.40;2.90;;;7.50;99.90;;;;;;5035039;28;20454;-72
2023/01/14 05:38:09;;;;;;;3.60;1.23;;;7.60;99.90;;;;;;5034322;28;20745;-72
2023/01/14 05:40:37;;;;;;;10.30;1.77;;;7.50;99.90;;;;;;5034215;28;20457;-72
2023/01/14 05:45:51;;;;;;;2.23;1.30;;;7.60;99.90;;;;;;5034090;28;20473;-73
2023/01/14 05:48:20;;;;;;;3.80;1.30;;;7.60;99.90;;;;;;5034366;28;20503;-72
2023/01/14 05:50:50;;;;;;;7.97;1.33;;;7.50;99.90;;;;;;5034129;28;21004;-72
2023/01/14 05:53:18;;;;;;;4.03;1.73;;;7.50;99.90;;;;;;5034334;28;20428;-72
2023/01/14 05:55:45;;;;;;;1.93;1.50;;;7.60;99.90;;;;;;4999292;28;20507;-71
2023/01/14 05:58:13;;;;;;;7.33;2.23;;;7.50;99.90;;;;;;5034128;28;20464;-72
2023/01/14 06:06:24;;;;;;;4.10;1.67;;;7.50;99.90;;;;;;5033672;28;20441;-72
2023/01/14 06:08:53;;;;;;;9.17;2.50;;;7.60;99.90;;;;;;5034630;28;20820;-72
2023/01/14 06:11:22;;;;;;;1.97;1.10;;;7.60;99.90;;;;;;5037558;28;20532;-72
2023/01/14 06:13:54;;;;;;;16.83;2.80;;;7.70;99.90;;;;;;5037104;28;20454;-72
2023/01/14 06:16:22;;;;;;;8.03;1.87;;;7.70;99.90;;;;;;5034346;28;20888;-72
2023/01/14 06:18:49;;;;;;;14.10;3.40;;;7.70;99.90;;;;;;5035340;28;20470;-72
2023/01/14 06:21:17;;;;;;;2.70;1.20;;;7.60;99.90;;;;;;5033251;28;20420;-71
2023/01/14 06:23:46;;;;;;;2.57;1.40;;;7.70;99.90;;;;;;5033594;28;20514;-71
2023/01/14 06:26:15;;;;;;;6.63;2.67;;;7.70;99.90;;;;;;5033398;28;20485;-72
2023/01/14 06:28:42;;;;;;;4.00;1.57;;;7.70;99.90;;;;;;5033353;28;20454;-71
2023/01/14 06:31:12;;;;;;;6.40;1.73;;;7.60;99.90;;;;;;5032918;28;20464;-71
2023/01/14 06:33:40;;;;;;;9.07;1.57;;;7.70;99.90;;;;;;5033757;28;20442;-72
2023/01/14 06:36:08;;;;;;;1.30;1.00;;;7.70;99.90;;;;;;5033096;28;20486;-71
2023/01/14 06:38:35;;;;;;;13.20;3.50;;;7.70;99.90;;;;;;5032816;28;20443;-74
2023/01/14 06:41:04;;;;;;;5.43;2.33;;;7.70;99.90;;;;;;5033200;28;20446;-72
2023/01/14 06:43:31;;;;;;;4.63;1.97;;;7.60;99.90;;;;;;5032989;28;20424;-72
2023/01/14 06:45:59;;;;;;;10.13;1.77;;;7.60;99.90;;;;;;5032572;28;20563;-71
2023/01/14 06:48:28;;;;;;;6.03;1.30;;;7.60;99.90;;;;;;5032688;28;20474;-71
2023/01/14 06:50:56;;;;;;;6.90;2.70;;;7.40;99.90;;;;;;5033154;28;20428;-71
2023/01/14 06:53:23;;;;;;;6.33;1.80;;;7.40;99.90;;;;;;5038234;28;20427;-72
2023/01/14 06:55:51;;;;;;;15.33;2.10;;;7.50;99.90;;;;;;5032770;28;20431;-71
2023/01/14 06:58:17;;;;;;;4.50;1.40;;;7.50;99.90;;;;;;5032689;28;20999;-72
2023/01/14 07:00:44;;;;;;;8.60;1.87;;;7.50;99.90;;;;;;5032732;28;20535;-72
2023/01/14 07:03:11;;;;;;;6.63;1.57;;;7.50;99.90;;;;;;5032770;28;20496;-72
2023/01/14 07:05:41;;;;;;;6.57;2.07;;;7.60;99.90;;;;;;5032839;28;20902;-72
2023/01/14 07:08:08;;;;;;;4.67;1.47;;;7.70;99.90;;;;;;5032076;28;21016;-72
2023/01/14 07:10:36;;;;;;;4.03;1.63;;;7.70;99.90;;;;;;5033007;28;20515;-72
2023/01/14 07:13:02;;;;;;;7.30;1.90;;;7.70;99.90;;;;;;5032823;28;20523;-72
2023/01/14 07:15:29;;;;;;;1.53;1.10;;;7.60;99.90;;;;;;5032833;28;20507;-72
2023/01/14 07:17:56;;;;;;;1.83;1.63;;;7.70;99.90;;;;;;5032528;28;20444;-72
2023/01/14 07:20:23;;;;;;;4.03;1.03;;;7.70;99.90;;;;;;5032601;28;20993;-72
2023/01/14 07:22:52;;;;;;;5.03;2.30;;;7.70;99.90;;;;;;5032150;28;20424;-72
2023/01/14 07:25:19;;;;;;;2.00;1.10;;;7.60;99.90;;;;;;5031855;28;20586;-73
2023/01/14 07:27:46;;;;;;;1.40;1.10;;;7.60;99.90;;;;;;5031919;28;20465;-72
2023/01/14 07:30:14;;;;;;;3.13;1.60;;;7.70;99.90;;;;;;5031917;28;20427;-73
2023/01/14 07:32:41;;;;;;;6.53;1.47;;;7.60;99.90;;;;;;5035312;28;20420;-72
2023/01/14 07:35:08;;;;;;;5.53;2.20;;;7.80;99.90;;;;;;5034519;28;20451;-72
2023/01/14 07:37:35;;;;;;;3.00;1.83;;;7.80;99.90;;;;;;5032785;28;20470;-72
2023/01/14 07:40:04;;;;;;;2.50;1.33;;;7.80;99.90;;;;;;5034118;28;20817;-72
2023/01/14 07:42:31;;;;;;;4.10;2.50;;;7.70;99.90;;;;;;5032080;28;20527;-72
2023/01/14 07:44:58;;;;;;;9.93;1.77;;;7.70;99.90;;;;;;5030659;28;20598;-72
2023/01/14 07:47:25;;;;;;;2.23;1.57;;;7.80;99.90;;;;;;5030794;28;20487;-72
2023/01/14 07:49:52;;;;;;;5.47;2.30;;;7.90;99.90;;;;;;5030036;28;20501;-72
2023/01/14 07:52:19;;;;;;;1.50;1.03;;;7.80;99.90;;;;;;5031014;28;20484;-72
2023/01/14 07:54:46;;;;;;;5.23;1.37;;;7.80;99.90;;;;;;5030866;28;20455;-72
2023/01/14 07:57:14;;;;;;;5.03;3.10;;;7.80;99.90;;;;;;5030716;28;20481;-72
2023/01/14 07:59:41;;;;;;;3.43;1.40;;;7.70;99.90;;;;;;5030733;28;20459;-72
2023/01/14 08:02:12;;;;;;;3.37;1.30;;;7.60;99.90;;;;;;5029015;28;20427;-72
2023/01/14 08:04:39;;;;;;;1.30;1.17;;;7.50;99.90;;;;;;5031522;28;20889;-72
2023/01/14 08:07:06;;;;;;;4.17;3.50;;;7.50;99.90;;;;;;5030985;28;20550;-72
2023/01/14 08:09:34;;;;;;;6.73;0.83;;;7.50;99.90;;;;;;5031589;28;20449;-73
2023/01/14 08:12:01;;;;;;;2.10;1.30;;;7.50;99.90;;;;;;5031978;28;20424;-72
2023/01/14 08:14:30;;;;;;;16.47;2.13;;;7.50;99.90;;;;;;5038683;28;21012;-72
2023/01/14 08:16:57;;;;;;;1.00;0.90;;;7.60;99.90;;;;;;5031693;28;20512;-73
2023/01/14 08:19:24;;;;;;;3.63;1.60;;;7.50;99.90;;;;;;5031798;28;20482;-72
2023/01/14 08:21:51;;;;;;;5.90;2.23;;;7.50;99.90;;;;;;5031454;28;20483;-73
2023/01/14 08:24:18;;;;;;;1.43;1.23;;;7.40;99.90;;;;;;5031872;28;20438;-72
2023/01/14 08:26:45;;;;;;;1.20;0.97;;;7.50;99.90;;;;;;5031400;28;20486;-73
2023/01/14 08:29:14;;;;;;;1.10;0.90;;;7.40;99.90;;;;;;5030163;28;20607;-73
2023/01/14 08:31:43;;;;;;;4.07;1.30;;;7.30;99.90;;;;;;5032079;28;20468;-72
2023/01/14 08:34:12;;;;;;;3.13;1.80;;;7.20;99.90;;;;;;5031732;28;20528;-72
2023/01/14 08:36:39;;;;;;;3.13;1.33;;;7.10;99.90;;;;;;5031554;28;20431;-72
2023/01/14 08:39:06;;;;;;;3.03;1.43;;;7.10;99.90;;;;;;5031296;28;20498;-72
2023/01/14 08:41:34;;;;;;;10.23;1.50;;;7.10;99.90;;;;;;5031542;28;20744;-73
2023/01/14 08:44:01;;;;;;;3.13;1.33;;;7.20;99.90;;;;;;5032257;28;20458;-73
2023/01/14 08:46:29;;;;;;;2.00;1.40;;;7.30;99.90;;;;;;5034273;28;20480;-73
2023/01/14 08:48:59;;;;;;;10.60;2.20;;;7.30;99.90;;;;;;5034843;28;20825;-72
2023/01/14 08:51:28;;;;;;;1.83;1.27;;;7.10;99.90;;;;;;5034638;28;20419;-73
2023/01/14 08:53:56;;;;;;;1.20;1.10;;;7.20;99.90;;;;;;5037896;28;20460;-72
2023/01/14 08:56:24;;;;;;;14.30;1.73;;;7.20;99.90;;;;;;5038702;28;20432;-73
2023/01/14 08:58:50;;;;;;;1.30;1.00;;;7.20;99.90;;;;;;5037605;28;20514;-72
2023/01/14 09:01:17;;;;;;;3.67;1.20;;;7.30;99.90;;;;;;5036189;28;20544;-73
2023/01/14 09:03:46;;;;;;;2.90;1.80;;;7.30;99.90;;;;;;5035115;28;20511;-72
2023/01/14 09:06:17;;;;;;;2.03;1.43;;;7.20;99.90;;;;;;5035571;28;20481;-72
2023/01/14 09:17:10;;;;;;;2.43;1.93;;;7.30;99.90;;;;;;5034881;28;20375;-72
2023/01/14 09:19:40;;;;;;;3.30;1.50;;;7.20;99.90;;;;;;5034539;28;20500;-72
2023/01/14 09:22:12;;;;;;;4.00;1.30;;;7.30;99.90;;;;;;5034944;28;20449;-72
2023/01/14 09:24:39;;;;;;;5.33;1.23;;;7.40;99.90;;;;;;5034478;28;20898;-72
2023/01/14 09:27:06;;;;;;;1.93;1.23;;;7.30;99.90;;;;;;5034719;28;20540;-72
2023/01/14 09:29:33;;;;;;;7.90;1.57;;;7.40;99.90;;;;;;5034479;28;20957;-73
2023/01/14 09:32:00;;;;;;;1.43;1.33;;;7.40;99.90;;;;;;5034790;28;20448;-71
2023/01/14 09:34:27;;;;;;;2.80;1.40;;;7.50;99.90;;;;;;5035417;28;20937;-71
2023/01/14 09:36:55;;;;;;;1.43;1.30;;;7.50;99.90;;;;;;5041935;28;20447;-72
2023/01/14 09:39:24;;;;;;;12.90;1.97;;;7.60;99.90;;;;;;5034883;28;20412;-72
2023/01/14 09:41:54;;;;;;;4.30;1.23;;;7.60;99.90;;;;;;5034005;28;20487;-71
2023/01/14 09:44:22;;;;;;;5.73;1.60;;;7.70;99.90;;;;;;5033939;28;20453;-71
2023/01/14 09:46:50;;;;;;;1.20;0.80;;;7.70;99.90;;;;;;5034631;28;20494;-71
2023/01/14 09:49:22;;;;;;;1.40;1.27;;;7.70;99.90;;;;;;5034103;28;20992;-72
2023/01/14 09:52:04;;;;;;;4.10;2.00;;;7.80;99.90;;;;;;5034452;28;20437;-72
2023/01/14 09:54:39;;;;;;;2.43;2.23;;;7.90;99.90;;;;;;5034429;28;20408;-72
2023/01/14 09:57:15;;;;;;;2.70;1.10;;;8.00;99.90;;;;;;5033224;28;20460;-72
2023/01/14 09:59:56;;;;;;;1.27;1.17;;;8.00;99.90;;;;;;5033908;28;20414;-72
2023/01/14 10:02:27;;;;;;;1.47;1.30;;;8.10;99.90;;;;;;5033178;28;20492;-74
2023/01/14 10:05:16;;;;;;;2.60;1.20;;;8.10;99.90;;;;;;5033537;28;20500;-72
2023/01/14 10:07:44;;;;;;;1.57;1.13;;;8.20;99.90;;;;;;5033016;28;20491;-72
2023/01/14 10:10:23;;;;;;;1.87;0.90;;;8.10;99.90;;;;;;5034058;28;20523;-72
2023/01/14 10:12:53;;;;;;;0.90;0.70;;;8.20;99.90;;;;;;5033681;28;20434;-72
2023/01/14 10:15:30;;;;;;;1.33;1.10;;;8.20;99.90;;;;;;5035996;28;20432;-73
2023/01/14 10:18:02;;;;;;;1.10;1.00;;;8.30;99.90;;;;;;5039682;28;20463;-71
2023/01/14 10:20:36;;;;;;;2.03;1.83;;;8.30;99.90;;;;;;5036723;28;21016;-73
2023/01/14 10:23:11;;;;;;;1.57;0.90;;;8.20;99.90;;;;;;5034062;28;20469;-71
2023/01/14 10:25:42;;;;;;;1.20;1.03;;;8.20;99.90;;;;;;5033664;28;20525;-73
2023/01/14 10:28:14;;;;;;;1.00;0.90;;;8.40;99.90;;;;;;5033885;28;20897;-71
2023/01/14 10:30:43;;;;;;;2.20;2.00;;;8.50;99.90;;;;;;5033431;28;20470;-72
2023/01/14 10:33:14;;;;;;;2.43;2.23;;;8.60;99.90;;;;;;5033450;28;20429;-73
2023/01/14 10:35:45;;;;;;;2.47;1.00;;;8.50;99.90;;;;;;5033554;28;20413;-72
2023/01/14 10:38:17;;;;;;;1.10;0.90;;;8.40;99.90;;;;;;5032807;28;20960;-72
2023/01/14 10:40:47;;;;;;;1.00;0.90;;;8.30;99.90;;;;;;5032793;28;20483;-72
2023/01/14 10:43:29;;;;;;;3.73;1.13;;;8.30;99.90;;;;;;5033012;28;20481;-73
2023/01/14 10:45:56;;;;;;;6.60;1.20;;;8.20;99.90;;;;;;5032702;28;20409;-74
2023/01/14 10:48:25;;;;;;;1.97;1.40;;;8.10;99.90;;;;;;5032604;28;20444;-72
2023/01/14 10:50:52;;;;;;;2.93;1.30;;;8.20;99.90;;;;;;5032702;28;20427;-71
2023/01/14 10:53:22;;;;;;;0.90;0.70;;;8.10;99.90;;;;;;5033012;28;20511;-72
2023/01/14 10:55:55;;;;;;;1.60;0.87;;;8.20;99.90;;;;;;5033262;28;20474;-72
2023/01/14 10:58:30;;;;;;;5.77;1.40;;;8.10;99.90;;;;;;5039705;28;20521;-72
2023/01/14 11:01:06;;;;;;;1.20;1.10;;;8.10;99.90;;;;;;5033064;28;20485;-72
2023/01/14 11:03:35;;;;;;;4.13;1.47;;;8.10;99.90;;;;;;5033024;28;20465;-72
2023/01/14 11:06:10;;;;;;;3.30;1.53;;;8.10;99.90;;;;;;5032066;28;20397;-72
2023/01/14 11:08:40;;;;;;;1.80;1.03;;;8.10;99.90;;;;;;5031408;28;20476;-73
2023/01/14 11:11:10;;;;;;;1.80;1.00;;;8.00;99.90;;;;;;5032275;28;20508;-72
2023/01/14 11:13:41;;;;;;;3.27;1.00;;;8.00;99.90;;;;;;5032573;28;20412;-72
2023/01/14 11:16:29;;;;;;;2.90;1.23;;;8.00;99.90;;;;;;5032157;28;20852;-73
2023/01/14 11:18:58;;;;;;;1.63;1.07;;;8.10;99.90;;;;;;5032274;28;20990;-71
2023/01/14 11:21:27;;;;;;;1.20;1.10;;;8.00;99.90;;;;;;5032623;28;20453;-73
2023/01/14 11:23:57;;;;;;;1.97;1.20;;;8.10;99.90;;;;;;5032753;28;20488;-72
2023/01/14 11:26:28;;;;;;;1.60;1.23;;;8.10;99.90;;;;;;5032718;28;20557;-73
2023/01/14 11:29:07;;;;;;;3.87;1.10;;;8.10;99.90;;;;;;5032151;28;20455;-72
2023/01/14 11:31:38;;;;;;;3.23;0.83;;;8.00;99.90;;;;;;5032759;28;20416;-72
2023/01/14 11:34:17;;;;;;;0.90;0.70;;;8.00;99.90;;;;;;5032502;28;20459;-71
2023/01/14 11:36:44;;;;;;;2.72;1.40;;;8.00;99.90;;;;;;5033104;28;20427;-72
2023/01/14 11:39:17;;;;;;;1.20;0.97;;;8.10;99.90;;;;;;5038991;28;20248;-73
2023/01/14 11:41:45;;;;;;;1.17;0.93;;;8.10;99.90;;;;;;5034449;28;20409;-72
2023/01/14 11:44:23;;;;;;;3.30;1.40;;;8.10;99.90;;;;;;5032666;28;20436;-72
2023/01/14 11:47:17;;;;;;;2.13;1.30;;;8.10;99.90;;;;;;5031916;28;20496;-73
2023/01/14 11:49:44;;;;;;;3.33;1.40;;;8.00;99.90;;;;;;5018252;28;20453;-73
2023/01/14 11:52:22;;;;;;;8.40;1.10;;;8.00;99.90;;;;;;5032366;28;20472;-73
2023/01/14 11:54:51;;;;;;;1.03;0.87;;;8.10;99.90;;;;;;5032263;28;20426;-72
2023/01/14 11:57:22;;;;;;;5.63;1.47;;;8.20;99.90;;;;;;5031755;28;20475;-72
2023/01/14 11:59:51;;;;;;;5.97;1.07;;;8.20;99.90;;;;;;5031754;28;20937;-73
2023/01/14 12:02:25;;;;;;;1.30;1.20;;;8.20;99.90;;;;;;5032021;28;20458;-73
2023/01/14 12:04:56;;;;;;;0.90;0.70;;;8.20;99.90;;;;;;5032223;28;20498;-74
2023/01/14 12:07:28;;;;;;;1.20;1.10;;;8.20;99.90;;;;;;5032287;28;20494;-73
2023/01/14 12:09:58;;;;;;;3.23;2.00;;;8.20;99.90;;;;;;5033086;28;20481;-74
2023/01/14 12:16:48;;;;;;;1.00;0.80;;;8.30;99.90;;;;;;5032737;28;20528;-74
2023/01/14 12:18:20;;;;;;;1.20;0.90;;;8.30;99.90;;;;;;5035759;28;20431;-72
2023/01/14 12:20:49;;;;;;;1.10;0.90;;;8.30;99.90;;;;;;5036702;28;20836;-73
2023/01/14 12:23:23;;;;;;;1.10;1.00;;;8.30;99.90;;;;;;5000492;28;20458;-71
2023/01/14 12:25:53;;;;;;;1.37;1.27;;;8.30;99.90;;;;;;5034080;28;20442;-72
2023/01/14 12:28:30;;;;;;;0.90;0.70;;;8.30;99.90;;;;;;5034951;28;20493;-73
2023/01/14 12:31:01;;;;;;;2.43;0.90;;;8.40;99.90;;;;;;5035477;28;20477;-74
2023/01/14 12:33:40;;;;;;;1.20;0.93;;;8.40;99.90;;;;;;5035915;28;20455;-72
2023/01/14 12:36:16;;;;;;;1.10;0.90;;;8.50;99.90;;;;;;5035861;28;20853;-72
2023/01/14 12:47:13;;;;;;;0.90;0.73;;;8.60;99.90;;;;;;5035484;28;20457;-73
2023/01/14 12:49:43;;;;;;;4.60;1.13;;;8.60;99.90;;;;;;5000560;28;20537;-72
2023/01/14 12:52:15;;;;;;;2.60;1.17;;;8.70;99.90;;;;;;5036368;28;20432;-70
2023/01/14 12:54:43;;;;;;;1.23;0.90;;;8.70;99.90;;;;;;5035986;28;20456;-72
2023/01/14 12:57:20;;;;;;;1.20;1.00;;;8.80;99.90;;;;;;5035559;28;20956;-73
2023/01/14 12:59:54;;;;;;;2.77;2.60;;;8.80;99.90;;;;;;5042833;28;20815;-73
2023/01/14 13:02:29;;;;;;;2.47;2.23;;;8.80;99.90;;;;;;5036935;28;20517;-72
2023/01/14 13:05:03;;;;;;;3.93;1.40;;;8.80;99.90;;;;;;5035182;28;20852;-72
2023/01/14 13:07:33;;;;;;;1.20;0.93;;;8.80;99.90;;;;;;5035265;28;20489;-72
2023/01/14 13:10:02;;;;;;;1.20;0.80;;;8.90;99.90;;;;;;5035432;28;20929;-71
2023/01/14 13:12:33;;;;;;;0.90;0.70;;;8.90;99.90;;;;;;5035338;28;20450;-72
2023/01/14 13:15:03;;;;;;;0.97;0.80;;;8.90;99.90;;;;;;5035592;28;20461;-72
2023/01/14 13:17:34;;;;;;;1.00;0.73;;;8.90;99.90;;;;;;5035542;28;20518;-72
2023/01/14 13:20:05;;;;;;;0.90;0.70;;;8.90;99.90;;;;;;5033674;28;20449;-71
2023/01/14 13:22:46;;;;;;;1.00;0.80;;;9.00;99.90;;;;;;5035476;28;20497;-74
2023/01/14 13:25:34;;;;;;;2.37;1.00;;;9.00;99.90;;;;;;5034924;28;20463;-73
2023/01/14 13:28:03;;;;;;;1.23;0.90;;;9.00;99.90;;;;;;5032035;28;20841;-71
2023/01/14 13:30:45;;;;;;;1.10;1.00;;;9.00;99.90;;;;;;5034306;28;20452;-71
2023/01/14 13:33:24;;;;;;;0.90;0.80;;;9.00;99.90;;;;;;5034630;28;20803;-72
2023/01/14 13:36:18;;;;;;;2.50;0.80;;;9.10;99.90;;;;;;5034526;28;20789;-73
2023/01/14 13:38:49;;;;;;;1.00;0.90;;;9.00;99.90;;;;;;5028738;28;20465;-73
2023/01/14 13:41:41;;;;;;;3.03;0.80;;;9.10;99.90;;;;;;5017668;28;20497;-72
2023/01/14 13:44:27;;;;;;;1.67;0.80;;;9.10;99.90;;;;;;5021037;28;20854;-72
2023/01/14 13:46:58;;;;;;;1.00;0.70;;;9.10;99.90;;;;;;5034471;28;20428;-74
2023/01/14 13:49:34;;;;;;;1.20;1.00;;;9.10;99.90;;;;;;5034600;28;20438;-72
2023/01/14 13:52:08;;;;;;;1.20;0.80;;;9.10;99.90;;;;;;5034626;28;20466;-72
2023/01/14 13:54:37;;;;;;;1.60;0.83;;;9.00;99.90;;;;;;5034421;28;20444;-73